Time;durP1;ratioP1;P1;durP2;ratioP2;P2;SDS_P1;SDS_P2;PMS_P1;PMS_P2;Temp;Humidity;BMP_temperature;BMP_pressure;BME280_temperature;BME280_humidity;BME280_pressure;Samples;Min_cycle;Max_cycle;Signal;HPM_P1;HPM_P2
2021/01/21 00:01:58;;;;;;;33.20;16.13;;;;;;;2.48;76.40;98405.44;120118;1150;104498;-72
2021/01/21 00:04:26;;;;;;;31.67;16.17;;;;;;;2.47;76.01;98401.95;120181;1148;104413;-70
2021/01/21 00:06:53;;;;;;;32.15;15.80;;;;;;;2.48;76.41;98387.06;120201;1150;104437;-71
2021/01/21 00:09:20;;;;;;;33.70;17.87;;;;;;;2.48;76.26;98389.69;120119;1150;104351;-70
2021/01/21 00:11:47;;;;;;;34.90;17.27;;;;;;;2.48;76.04;98387.06;120012;1149;104438;-68
2021/01/21 00:14:15;;;;;;;34.20;17.50;;;;;;;2.46;75.92;98378.42;119938;1148;105487;-71
2021/01/21 00:16:41;;;;;;;34.93;18.27;;;;;;;2.48;76.56;98390.52;119935;1148;104445;-70
2021/01/21 00:19:09;;;;;;;35.27;17.17;;;;;;;2.49;76.85;98384.34;119886;1148;104869;-69
2021/01/21 00:21:37;;;;;;;30.25;14.05;;;;;;;2.51;76.08;98389.54;119950;1150;104404;-68
2021/01/21 00:24:04;;;;;;;32.30;14.77;;;;;;;2.50;76.18;98383.42;120002;1150;104450;-70
2021/01/21 00:26:31;;;;;;;31.70;16.67;;;;;;;2.52;76.56;98391.23;120141;1148;104377;-70
2021/01/21 00:28:58;;;;;;;31.33;16.07;;;;;;;2.52;76.29;98391.23;119990;1150;104399;-69
2021/01/21 00:31:25;;;;;;;31.47;15.20;;;;;;;2.53;76.07;98383.27;120070;1150;104434;-70
2021/01/21 00:33:52;;;;;;;32.93;15.57;;;;;;;2.54;76.46;98386.76;120089;1150;104342;-70
2021/01/21 00:36:19;;;;;;;29.52;14.70;;;;;;;2.55;76.63;98387.59;120174;1150;104479;-70
2021/01/21 00:38:46;;;;;;;31.77;14.93;;;;;;;2.53;76.57;98385.89;119979;1148;104411;-71
2021/01/21 00:41:13;;;;;;;30.32;14.63;;;;;;;2.53;76.73;98392.94;120050;1148;104445;-70
2021/01/21 00:43:40;;;;;;;29.10;15.03;;;;;;;2.54;76.36;98381.51;120030;1150;104449;-70
2021/01/21 00:46:07;;;;;;;30.63;15.27;;;;;;;2.54;76.42;98392.02;120242;1149;104413;-72
2021/01/21 00:48:34;;;;;;;30.65;14.90;;;;;;;2.53;76.28;98383.27;119985;1149;104540;-70
2021/01/21 00:51:01;;;;;;;30.43;13.83;;;;;;;2.54;76.31;98389.39;120089;1150;104497;-71
2021/01/21 00:53:28;;;;;;;30.65;14.45;;;;;;;2.54;76.79;98371.01;120066;1148;104506;-70
2021/01/21 00:55:55;;;;;;;29.63;15.50;;;;;;;2.52;76.30;98385.98;120057;1150;104425;-70
2021/01/21 00:58:22;;;;;;;31.50;16.10;;;;;;;2.52;76.04;98380.73;120097;1150;104506;-70
2021/01/21 01:00:49;;;;;;;27.73;14.70;;;;;;;2.52;76.67;98370.23;120096;1150;104348;-70
2021/01/21 01:03:15;;;;;;;32.13;16.30;;;;;;;2.52;76.31;98376.32;120120;1149;104343;-70
2021/01/21 01:05:43;;;;;;;32.55;16.55;;;;;;;2.52;76.22;98378.11;120022;1150;104375;-74
2021/01/21 01:08:10;;;;;;;30.27;15.13;;;;;;;2.50;76.55;98374.71;120062;1150;104513;-70
2021/01/21 01:10:37;;;;;;;31.15;16.42;;;;;;;2.48;76.74;98369.52;120153;1150;104460;-72
2021/01/21 01:13:04;;;;;;;34.10;16.60;;;;;;;2.47;76.27;98380.12;120140;1150;104455;-70
2021/01/21 01:15:33;;;;;;;31.77;16.80;;;;;;;2.45;76.30;98376.72;119981;1150;104452;-71
2021/01/21 01:18:00;;;;;;;32.23;15.57;;;;;;;2.45;76.72;98374.09;120001;1148;104956;-70
2021/01/21 01:20:28;;;;;;;32.37;15.97;;;;;;;2.44;76.64;98367.14;119933;1148;104588;-71
2021/01/21 01:22:56;;;;;;;29.60;15.10;;;;;;;2.43;76.55;98363.69;120123;1148;104448;-71
2021/01/21 01:25:23;;;;;;;31.90;16.20;;;;;;;2.42;76.53;98361.98;119973;1150;104503;-70
2021/01/21 01:27:50;;;;;;;31.93;15.97;;;;;;;2.42;76.85;98361.98;121073;1149;104428;-69
2021/01/21 01:30:18;;;;;;;33.20;17.93;;;;;;;2.43;76.46;98363.69;120029;1150;104413;-71
2021/01/21 01:32:47;;;;;;;33.03;17.60;;;;;;;2.41;76.43;98357.66;120057;1150;105254;-69
2021/01/21 01:35:14;;;;;;;31.47;16.20;;;;;;;2.42;76.17;98363.75;120127;1150;104444;-71
2021/01/21 01:37:42;;;;;;;31.50;16.40;;;;;;;2.41;76.15;98367.30;120036;1150;104365;-71
2021/01/21 01:40:10;;;;;;;33.27;17.40;;;;;;;2.42;76.65;98366.38;119995;1150;104516;-69
2021/01/21 01:42:38;;;;;;;33.03;15.57;;;;;;;2.40;77.00;98363.84;120035;1150;104442;-71
2021/01/21 01:45:06;;;;;;;31.27;15.70;;;;;;;2.38;76.98;98353.41;120015;1150;104440;-70
2021/01/21 01:47:41;;;;;;;32.07;16.97;;;;;;;2.38;76.87;98361.27;121656;1148;104525;-70
2021/01/21 01:50:10;;;;;;;32.65;18.20;;;;;;;2.39;76.69;98364.77;120073;1148;104438;-70
2021/01/21 01:52:44;;;;;;;32.70;17.17;;;;;;;2.41;76.13;98352.41;120004;1149;104453;-70
2021/01/21 01:55:12;;;;;;;34.03;17.80;;;;;;;2.40;76.24;98350.72;120043;1150;104338;-71
2021/01/21 01:57:44;;;;;;;28.93;15.67;;;;;;;2.41;76.73;98348.92;120090;1149;104338;-70
2021/01/21 02:00:12;;;;;;;34.10;17.63;;;;;;;2.41;76.67;98346.30;120131;1149;104374;-70
2021/01/21 02:02:40;;;;;;;30.80;15.67;;;;;;;2.41;76.31;98339.29;120139;1149;104410;-70
2021/01/21 02:05:07;;;;;;;31.97;17.20;;;;;;;2.41;76.34;98341.05;119993;1149;104444;-70
2021/01/21 02:07:34;;;;;;;32.70;17.67;;;;;;;2.40;76.83;98340.22;119927;1149;104372;-70
2021/01/21 02:10:02;;;;;;;30.67;15.17;;;;;;;2.39;76.83;98341.14;119941;1150;104482;-69
2021/01/21 02:12:56;;;;;;;33.57;17.47;;;;;;;2.41;76.22;98341.05;120730;1148;104384;-70
2021/01/21 02:15:39;;;;;;;32.33;16.73;;;;;;;2.42;76.79;98340.13;120003;1150;104342;-70
2021/01/21 02:18:26;;;;;;;31.73;16.03;;;;;;;2.45;76.80;98335.55;120099;1150;104479;-72
2021/01/21 02:21:28;;;;;;;31.03;15.90;;;;;;;2.47;76.73;98327.61;120156;1149;104341;-70
2021/01/21 02:24:29;;;;;;;31.23;15.93;;;;;;;2.47;76.12;98330.23;119997;1150;104489;-70
2021/01/21 02:26:58;;;;;;;29.70;15.80;;;;;;;2.47;76.88;98332.86;119975;1151;104463;-70
2021/01/21 02:29:29;;;;;;;32.43;17.40;;;;;;;2.47;76.77;98332.86;121235;1148;104445;-69
2021/01/21 02:32:05;;;;;;;31.80;15.33;;;;;;;2.47;76.77;98333.70;120151;1150;104428;-70
2021/01/21 02:34:44;;;;;;;29.17;13.87;;;;;;;2.47;76.64;98330.23;120078;1149;104374;-70
2021/01/21 02:37:19;;;;;;;30.40;15.77;;;;;;;2.49;76.48;98320.52;120142;1150;104500;-70
2021/01/21 02:39:51;;;;;;;29.70;15.17;;;;;;;2.48;76.91;98324.06;120099;1150;104411;-68
2021/01/21 02:42:18;;;;;;;29.67;15.97;;;;;;;2.49;77.28;98316.09;120127;1149;104519;-69
2021/01/21 02:44:47;;;;;;;30.17;15.90;;;;;;;2.51;76.60;98321.28;120014;1148;104568;-70
2021/01/21 02:47:15;;;;;;;28.50;14.67;;;;;;;2.51;76.25;98316.03;119986;1150;104448;-70
2021/01/21 02:49:46;;;;;;;27.13;13.67;;;;;;;2.52;76.76;98300.19;119980;1148;104901;-70
2021/01/21 02:52:37;;;;;;;28.27;14.53;;;;;;;2.53;76.31;98306.30;119992;1150;104436;-70
2021/01/21 02:55:13;;;;;;;28.40;12.97;;;;;;;2.52;76.04;98292.31;120022;1150;104527;-71
2021/01/21 02:57:47;;;;;;;28.97;14.73;;;;;;;2.53;77.07;98301.05;120111;1148;104414;-71
2021/01/21 03:00:15;;;;;;;28.90;16.10;;;;;;;2.52;76.56;98302.81;120119;1149;104407;-69
2021/01/21 03:02:45;;;;;;;31.95;15.85;;;;;;;2.54;76.62;98302.75;120081;1150;104591;-71
2021/01/21 03:05:13;;;;;;;28.43;15.10;;;;;;;2.56;76.67;98298.27;120274;1149;104464;-71
2021/01/21 03:07:41;;;;;;;30.30;14.43;;;;;;;2.56;76.93;98300.89;120208;1149;104377;-70
2021/01/21 03:10:10;;;;;;;29.40;15.25;;;;;;;2.59;76.69;98305.12;120128;1149;104506;-71
2021/01/21 03:12:37;;;;;;;27.60;14.50;;;;;;;2.59;76.20;98295.48;120121;1149;104442;-70
2021/01/21 03:15:07;;;;;;;29.87;14.30;;;;;;;2.62;76.69;98304.96;120182;1149;104461;-70
2021/01/21 03:17:34;;;;;;;29.27;14.27;;;;;;;2.65;76.31;98305.64;120421;1148;104372;-71
2021/01/21 03:20:02;;;;;;;31.13;14.87;;;;;;;2.66;76.67;98304.70;120054;1150;104371;-70
2021/01/21 03:22:29;;;;;;;26.93;13.23;;;;;;;2.68;76.42;98304.64;120013;1148;104413;-69
2021/01/21 03:24:56;;;;;;;27.97;14.67;;;;;;;2.68;76.54;98305.48;120074;1149;104506;-68
2021/01/21 03:27:23;;;;;;;27.30;14.10;;;;;;;2.70;77.04;98299.30;120101;1150;104486;-70
2021/01/21 03:29:50;;;;;;;26.23;12.67;;;;;;;2.71;76.54;98303.62;120015;1150;105024;-69
2021/01/21 03:32:17;;;;;;;27.80;13.97;;;;;;;2.73;76.77;98301.77;120217;1149;104345;-70
2021/01/21 03:34:46;;;;;;;26.83;13.53;;;;;;;2.75;77.32;98300.77;120078;1150;104462;-68
2021/01/21 03:37:13;;;;;;;28.17;14.73;;;;;;;2.77;76.50;98298.05;120179;1150;104342;-69
2021/01/21 03:39:40;;;;;;;27.00;12.80;;;;;;;2.79;76.39;98286.55;120077;1150;104450;-67
2021/01/21 03:42:07;;;;;;;27.47;13.20;;;;;;;2.82;77.12;98301.28;120135;1149;104338;-70
2021/01/21 03:44:34;;;;;;;25.97;13.20;;;;;;;2.85;77.07;98302.91;120119;1149;104375;-70
2021/01/21 03:47:02;;;;;;;26.50;13.37;;;;;;;2.86;76.89;98302.81;120480;1149;104366;-68
2021/01/21 03:49:29;;;;;;;24.63;12.53;;;;;;;2.89;77.16;98307.05;120092;1148;104381;-69
2021/01/21 03:51:56;;;;;;;24.93;13.37;;;;;;;2.90;76.62;98311.37;120190;1149;104602;-69
2021/01/21 03:54:23;;;;;;;26.40;13.23;;;;;;;2.91;76.60;98307.81;120092;1150;104413;-67
2021/01/21 03:56:50;;;;;;;24.37;12.53;;;;;;;2.92;76.48;98304.26;120115;1148;104793;-68
2021/01/21 03:59:17;;;;;;;24.63;13.30;;;;;;;2.91;77.31;98308.68;120171;1150;104468;-69
2021/01/21 04:01:43;;;;;;;22.97;10.77;;;;;;;2.93;77.19;98300.70;120012;1148;105114;-69
2021/01/21 04:04:11;;;;;;;25.37;13.63;;;;;;;2.94;76.73;98305.02;120062;1148;104872;-69
2021/01/21 04:06:39;;;;;;;27.27;14.23;;;;;;;2.94;76.48;98287.50;120372;1148;104363;-69
2021/01/21 04:09:06;;;;;;;24.97;12.73;;;;;;;2.96;76.18;98283.01;120081;1149;104372;-70
2021/01/21 04:11:33;;;;;;;24.33;12.07;;;;;;;2.97;77.12;98274.20;120050;1148;104339;-67
2021/01/21 04:14:00;;;;;;;25.72;11.38;;;;;;;2.99;77.09;98284.61;120541;1149;104499;-68
2021/01/21 04:16:27;;;;;;;24.10;12.03;;;;;;;3.00;76.87;98269.71;120112;1148;104840;-66
2021/01/21 04:18:54;;;;;;;24.10;11.20;;;;;;;3.00;76.97;98270.55;119993;1150;104410;-68
2021/01/21 04:21:21;;;;;;;23.97;11.53;;;;;;;3.00;76.66;98280.22;120092;1149;104359;-65
2021/01/21 04:23:48;;;;;;;25.80;12.90;;;;;;;3.00;76.42;98272.34;120069;1150;104433;-69
2021/01/21 04:26:15;;;;;;;24.30;12.00;;;;;;;3.01;76.62;98272.23;120880;1150;104348;-68
2021/01/21 04:28:42;;;;;;;25.50;12.27;;;;;;;3.03;76.40;98277.42;120047;1148;104375;-68
2021/01/21 04:31:09;;;;;;;22.95;11.43;;;;;;;3.03;76.96;98267.75;120168;1149;104416;-69
2021/01/21 04:33:36;;;;;;;24.70;12.03;;;;;;;3.05;76.52;98257.17;120067;1150;104573;-70
2021/01/21 04:36:04;;;;;;;26.63;12.93;;;;;;;3.06;76.82;98280.72;119979;1148;104368;-69
2021/01/21 04:38:31;;;;;;;25.90;12.03;;;;;;;3.08;76.94;98270.98;120029;1148;104384;-70
2021/01/21 04:40:57;;;;;;;25.30;13.20;;;;;;;3.08;77.06;98262.23;120000;1150;104435;-70
2021/01/21 04:43:25;;;;;;;25.80;12.23;;;;;;;3.11;76.74;98256.81;120014;1148;104411;-69
2021/01/21 04:45:53;;;;;;;26.00;11.27;;;;;;;3.10;77.08;98263.86;119992;1150;104585;-71
2021/01/21 04:48:21;;;;;;;26.00;12.03;;;;;;;3.10;76.66;98255.11;119983;1150;104398;-70
2021/01/21 04:50:49;;;;;;;24.20;11.83;;;;;;;3.13;76.66;98258.44;120120;1150;104836;-71
2021/01/21 04:53:22;;;;;;;25.37;12.80;;;;;;;3.11;76.54;98259.44;120028;1149;104447;-69
2021/01/21 04:55:56;;;;;;;22.93;11.13;;;;;;;3.11;76.34;98270.81;120117;1149;104367;-71
2021/01/21 04:58:33;;;;;;;25.47;12.07;;;;;;;3.13;76.95;98268.95;120780;1148;104676;-70
2021/01/21 05:01:02;;;;;;;25.27;10.83;;;;;;;3.14;77.09;98254.02;120137;1149;104441;-70
2021/01/21 05:03:29;;;;;;;25.10;12.50;;;;;;;3.16;76.70;98256.58;120164;1148;104475;-72
2021/01/21 05:05:56;;;;;;;26.37;13.07;;;;;;;3.18;76.60;98260.80;120069;1149;104510;-73
2021/01/21 05:08:23;;;;;;;24.63;11.47;;;;;;;3.17;76.92;98264.36;120022;1149;104530;-69
2021/01/21 05:10:51;;;;;;;28.50;13.67;;;;;;;3.18;76.21;98273.11;120142;1148;104535;-69
2021/01/21 05:13:18;;;;;;;26.00;12.60;;;;;;;3.19;76.35;98267.75;120045;1148;104367;-68
2021/01/21 05:15:45;;;;;;;25.90;13.43;;;;;;;3.19;76.66;98262.49;120100;1149;104341;-67
2021/01/21 05:18:13;;;;;;;26.90;13.13;;;;;;;3.20;76.59;98282.59;119954;1149;104506;-69
2021/01/21 05:20:40;;;;;;;26.53;13.37;;;;;;;3.20;76.96;98260.73;120635;1148;104341;-70
2021/01/21 05:23:07;;;;;;;26.52;13.20;;;;;;;3.18;76.35;98255.55;120030;1149;104381;-70
2021/01/21 05:25:34;;;;;;;23.90;12.40;;;;;;;3.21;76.52;98265.05;120001;1149;104431;-70
2021/01/21 05:28:06;;;;;;;26.07;12.13;;;;;;;3.20;76.46;98258.94;120147;1149;104313;-72
2021/01/21 05:30:34;;;;;;;25.30;12.03;;;;;;;3.22;76.73;98266.75;120008;1150;104462;-71
2021/01/21 05:33:02;;;;;;;24.90;11.13;;;;;;;3.21;76.93;98254.55;120403;1149;104595;-70
2021/01/21 05:35:30;;;;;;;27.77;14.00;;;;;;;3.20;76.16;98271.24;119996;1150;104441;-70
2021/01/21 05:37:58;;;;;;;27.40;13.43;;;;;;;3.18;76.37;98270.48;120081;1148;104441;-70
2021/01/21 05:40:28;;;;;;;28.10;13.47;;;;;;;3.17;76.63;98263.52;119977;1149;104450;-70
2021/01/21 05:42:57;;;;;;;27.17;14.00;;;;;;;3.14;76.88;98272.41;120302;1149;104384;-70
2021/01/21 05:45:25;;;;;;;27.07;13.87;;;;;;;3.11;76.26;98262.93;120071;1150;104506;-73
2021/01/21 05:48:01;;;;;;;26.30;12.45;;;;;;;3.09;76.75;98253.42;120057;1150;104348;-69
2021/01/21 05:50:29;;;;;;;25.10;12.10;;;;;;;3.09;76.83;98267.42;120271;1149;104367;-70
2021/01/21 05:52:58;;;;;;;26.67;13.50;;;;;;;3.09;76.85;98264.79;120066;1148;104373;-71
2021/01/21 05:55:27;;;;;;;26.27;13.67;;;;;;;3.10;76.79;98260.37;120022;1149;104421;-69
2021/01/21 05:57:54;;;;;;;27.03;12.60;;;;;;;3.10;76.04;98266.48;120197;1148;104361;-68
2021/01/21 06:00:25;;;;;;;25.90;12.63;;;;;;;3.09;77.10;98267.42;119924;1149;104441;-69
2021/01/21 06:02:53;;;;;;;26.75;13.40;;;;;;;3.11;76.80;98267.32;120059;1148;104440;-70
2021/01/21 06:05:22;;;;;;;28.50;14.27;;;;;;;3.13;76.58;98266.32;122172;1148;103056;-71
2021/01/21 06:07:51;;;;;;;26.17;11.97;;;;;;;3.16;76.82;98267.09;120698;1148;102024;-70
2021/01/21 06:10:20;;;;;;;23.37;12.20;;;;;;;3.18;76.40;98265.22;120051;1148;104349;-70
2021/01/21 06:12:49;;;;;;;25.03;13.40;;;;;;;3.19;76.88;98273.01;120052;1148;104359;-70
2021/01/21 06:15:18;;;;;;;27.23;13.30;;;;;;;3.20;76.69;98266.82;121096;1148;104429;-70
2021/01/21 06:17:48;;;;;;;27.05;13.60;;;;;;;3.22;76.22;98266.75;119945;1148;104365;-71
2021/01/21 06:20:17;;;;;;;26.70;13.70;;;;;;;3.22;76.32;98267.58;119963;1149;104390;-70
2021/01/21 06:22:46;;;;;;;24.73;12.70;;;;;;;3.24;76.78;98262.26;120023;1148;104417;-70
2021/01/21 06:25:16;;;;;;;25.43;11.63;;;;;;;3.23;76.66;98256.14;119995;1149;104410;-69
2021/01/21 06:27:45;;;;;;;27.80;15.10;;;;;;;3.24;76.85;98263.09;120029;1148;104364;-70
2021/01/21 06:30:21;;;;;;;26.60;12.17;;;;;;;3.26;76.32;98263.02;120146;1149;104345;-69
2021/01/21 06:33:05;;;;;;;25.40;13.43;;;;;;;3.27;76.46;98269.94;120094;1148;104337;-70
2021/01/21 06:35:41;;;;;;;25.57;14.07;;;;;;;3.29;76.22;98270.70;120077;1150;104562;-71
2021/01/21 06:38:24;;;;;;;25.93;13.33;;;;;;;3.31;76.62;98271.47;120093;1150;104933;-71
2021/01/21 06:40:53;;;;;;;26.20;12.20;;;;;;;3.33;76.75;98274.86;120188;1148;104348;-70
2021/01/21 06:43:24;;;;;;;25.90;13.40;;;;;;;3.32;76.77;98273.17;120167;1149;104414;-72
2021/01/21 06:45:56;;;;;;;28.83;14.77;;;;;;;3.33;76.72;98268.77;120225;1150;104443;-70
2021/01/21 06:48:25;;;;;;;26.13;13.37;;;;;;;3.34;76.57;98270.47;120198;1149;104912;-69
2021/01/21 06:50:53;;;;;;;28.13;13.60;;;;;;;3.34;76.62;98281.81;120075;1148;103340;-69
2021/01/21 06:53:23;;;;;;;27.17;13.73;;;;;;;3.35;76.60;98287.94;120045;1148;104449;-69
2021/01/21 06:55:51;;;;;;;30.20;15.17;;;;;;;3.35;76.20;98283.52;120059;1148;104545;-68
2021/01/21 06:58:46;;;;;;;29.93;14.13;;;;;;;3.36;76.61;98281.75;120136;1150;104442;-71
2021/01/21 07:01:28;;;;;;;30.63;14.13;;;;;;;3.37;76.57;98283.45;120096;1149;104371;-69
2021/01/21 07:04:25;;;;;;;29.00;14.05;;;;;;;3.36;76.00;98284.38;120046;1150;104341;-69
2021/01/21 07:06:55;;;;;;;28.60;14.07;;;;;;;3.38;76.55;98288.60;120117;1148;104438;-70
2021/01/21 07:09:27;;;;;;;27.90;14.30;;;;;;;3.40;76.08;98272.77;120059;1149;104410;-70
2021/01/21 07:12:01;;;;;;;27.13;13.00;;;;;;;3.42;76.18;98281.41;120118;1148;104841;-71
2021/01/21 07:14:34;;;;;;;27.07;12.47;;;;;;;3.46;76.18;98287.33;120134;1150;104506;-70
2021/01/21 07:17:05;;;;;;;28.17;14.70;;;;;;;3.47;76.56;98279.34;120137;1149;104387;-71
2021/01/21 07:19:37;;;;;;;27.63;13.93;;;;;;;3.50;76.14;98283.59;120137;1149;104369;-69
2021/01/21 07:22:18;;;;;;;29.27;14.13;;;;;;;3.54;76.71;98272.81;120147;1148;104444;-70
2021/01/21 07:25:07;;;;;;;29.37;14.50;;;;;;;3.57;76.05;98277.06;120211;1148;104339;-68
2021/01/21 07:27:35;;;;;;;30.37;14.37;;;;;;;3.60;75.97;98269.00;120179;1150;104347;-69
2021/01/21 07:30:25;;;;;;;28.77;13.90;;;;;;;3.64;76.66;98274.92;120080;1148;104342;-70
2021/01/21 07:33:18;;;;;;;29.23;15.23;;;;;;;3.65;75.97;98255.58;120134;1148;104371;-69
2021/01/21 07:35:47;;;;;;;27.30;13.57;;;;;;;3.70;75.94;98277.20;120029;1148;104412;-71
2021/01/21 07:38:49;;;;;;;26.37;12.77;;;;;;;3.73;76.01;98269.14;120141;1148;104444;-69
2021/01/21 07:41:40;;;;;;;30.10;14.33;;;;;;;3.76;75.66;98268.11;120087;1151;104639;-70
2021/01/21 07:44:10;;;;;;;26.80;13.05;;;;;;;3.80;75.77;98265.23;120125;1148;104607;-71
2021/01/21 07:46:37;;;;;;;26.33;13.07;;;;;;;3.82;75.99;98263.36;120165;1151;104218;-71
2021/01/21 07:49:27;;;;;;;26.50;13.50;;;;;;;3.87;76.18;98281.49;120060;1148;104361;-70
2021/01/21 07:52:05;;;;;;;25.33;12.83;;;;;;;3.90;76.17;98270.80;120151;1148;104410;-70
2021/01/21 07:54:52;;;;;;;28.77;13.60;;;;;;;3.94;75.93;98268.81;119796;1149;104559;-71
2021/01/21 07:57:23;;;;;;;26.87;12.13;;;;;;;3.99;75.96;98272.89;119993;1148;104460;-70
2021/01/21 08:00:10;;;;;;;27.57;12.77;;;;;;;4.03;75.68;98270.92;120135;1148;104924;-70
2021/01/21 08:02:50;;;;;;;25.93;12.73;;;;;;;4.08;76.05;98268.87;120146;1149;104474;-72
2021/01/21 08:05:19;;;;;;;27.67;12.97;;;;;;;4.12;75.52;98273.02;120219;1149;104386;-67
2021/01/21 08:07:57;;;;;;;24.87;13.20;;;;;;;4.17;76.14;98262.20;120056;1148;104506;-69
2021/01/21 08:10:27;;;;;;;24.33;13.07;;;;;;;4.22;75.75;98269.84;119987;1150;104851;-70
2021/01/21 08:12:59;;;;;;;26.73;11.87;;;;;;;4.27;75.38;98276.52;120084;1148;104416;-70
2021/01/21 08:15:30;;;;;;;26.03;13.33;;;;;;;4.29;75.45;98273.78;120058;1148;104458;-70
2021/01/21 08:17:59;;;;;;;25.20;13.23;;;;;;;4.33;75.77;98272.66;120140;1148;104339;-70
2021/01/21 08:20:33;;;;;;;26.50;11.93;;;;;;;4.38;75.55;98267.97;120068;1148;104429;-70
2021/01/21 08:23:06;;;;;;;23.47;11.70;;;;;;;4.41;75.53;98280.95;120040;1148;102757;-70
2021/01/21 08:25:41;;;;;;;25.55;11.88;;;;;;;4.46;75.48;98262.27;120058;1149;104530;-70
2021/01/21 08:28:10;;;;;;;23.57;10.87;;;;;;;4.52;75.54;98276.83;120042;1150;104448;-70
2021/01/21 08:30:38;;;;;;;24.60;11.73;;;;;;;4.58;75.66;98266.77;120175;1148;104416;-70
2021/01/21 08:33:18;;;;;;;24.57;12.90;;;;;;;4.63;75.49;98271.77;120039;1149;104428;-69
2021/01/21 08:35:54;;;;;;;25.60;11.90;;;;;;;4.73;75.53;98275.51;119961;1149;104380;-70
2021/01/21 08:38:27;;;;;;;23.13;11.57;;;;;;;4.81;75.27;98285.59;120157;1149;104420;-70
2021/01/21 08:40:57;;;;;;;23.80;10.40;;;;;;;4.86;75.33;98287.94;120069;1151;104407;-70
2021/01/21 08:43:26;;;;;;;27.23;11.53;;;;;;;4.87;75.09;98281.72;120083;1148;104452;-71
2021/01/21 08:45:53;;;;;;;25.73;12.50;;;;;;;4.91;75.41;98277.95;120123;1150;104524;-71
2021/01/21 08:48:26;;;;;;;23.17;11.77;;;;;;;4.95;75.09;98279.47;120206;1148;104433;-69
2021/01/21 08:50:54;;;;;;;23.20;10.77;;;;;;;4.98;75.27;98287.19;120119;1148;104369;-70
2021/01/21 08:53:24;;;;;;;23.37;10.00;;;;;;;5.02;75.02;98269.38;120098;1148;104433;-70
2021/01/21 08:55:54;;;;;;;24.20;11.00;;;;;;;5.04;74.94;98270.98;120123;1150;104471;-71
2021/01/21 08:58:32;;;;;;;22.30;10.47;;;;;;;5.07;74.87;98275.20;120252;1148;104447;-72
2021/01/21 09:01:04;;;;;;;22.07;9.97;;;;;;;5.14;74.99;98271.25;120161;1148;104487;-71
2021/01/21 09:03:32;;;;;;;20.45;9.10;;;;;;;5.23;74.94;98268.98;120119;1148;104375;-70
2021/01/21 09:06:00;;;;;;;21.43;10.23;;;;;;;5.30;74.99;98270.28;120146;1149;104439;-71
2021/01/21 09:08:27;;;;;;;23.50;9.97;;;;;;;5.34;74.68;98266.48;120105;1150;103171;-71
2021/01/21 09:10:56;;;;;;;23.60;10.72;;;;;;;5.46;74.63;98263.06;120065;1150;104400;-69
2021/01/21 09:13:23;;;;;;;22.20;9.97;;;;;;;5.72;74.13;98251.76;120178;1150;104349;-71
2021/01/21 09:15:57;;;;;;;21.37;8.93;;;;;;;5.85;74.71;98246.50;120077;1150;104885;-70
2021/01/21 09:18:45;;;;;;;23.33;10.63;;;;;;;5.99;74.13;98254.36;120058;1150;104408;-71
2021/01/21 09:21:17;;;;;;;24.23;10.77;;;;;;;6.19;74.22;98249.55;120057;1149;104433;-72
2021/01/21 09:24:08;;;;;;;19.97;9.00;;;;;;;6.40;74.72;98252.52;120065;1149;104407;-70
2021/01/21 09:26:36;;;;;;;19.45;8.60;;;;;;;6.80;74.22;98246.27;120133;1150;104407;-72
2021/01/21 09:29:04;;;;;;;21.53;9.33;;;;;;;7.02;73.15;98242.95;120116;1149;104377;-73
2021/01/21 09:31:32;;;;;;;20.77;8.53;;;;;;;7.30;73.54;98243.60;120142;1151;104413;-70
2021/01/21 09:34:00;;;;;;;22.00;10.13;;;;;;;7.44;73.33;98234.65;120160;1149;104333;-69
2021/01/21 09:36:29;;;;;;;18.97;8.47;;;;;;;7.56;72.84;98241.70;120079;1150;104332;-72
2021/01/21 09:38:57;;;;;;;20.70;8.63;;;;;;;7.67;72.58;98230.31;120182;1151;104430;-71
2021/01/21 09:41:27;;;;;;;22.13;9.37;;;;;;;7.64;72.38;98219.95;120219;1149;104371;-70
2021/01/21 09:43:56;;;;;;;19.47;8.10;;;;;;;7.59;72.41;98244.12;120084;1150;104460;-71
2021/01/21 09:46:26;;;;;;;21.93;9.47;;;;;;;7.57;73.31;98229.30;120146;1151;104403;-70
2021/01/21 09:49:00;;;;;;;20.17;8.90;;;;;;;7.54;72.25;98248.91;120274;1149;105001;-71
2021/01/21 09:51:27;;;;;;;19.53;9.37;;;;;;;7.38;72.40;98228.02;120055;1150;104473;-70
2021/01/21 09:53:54;;;;;;;17.25;8.15;;;;;;;7.33;71.99;98227.51;120111;1150;103289;-71
2021/01/21 09:56:22;;;;;;;18.70;8.10;;;;;;;7.32;72.78;98230.28;120035;1150;104439;-71
2021/01/21 09:58:49;;;;;;;22.40;9.37;;;;;;;7.27;72.82;98210.30;120091;1150;104387;-71
2021/01/21 10:01:16;;;;;;;21.00;9.33;;;;;;;7.29;72.48;98218.10;120242;1151;104455;-71
2021/01/21 10:03:49;;;;;;;18.90;8.50;;;;;;;7.28;71.71;98211.98;120177;1149;104434;-71
2021/01/21 10:06:16;;;;;;;19.20;8.58;;;;;;;7.17;71.45;98206.62;120108;1150;104336;-70
2021/01/21 10:08:43;;;;;;;20.40;8.47;;;;;;;7.05;71.30;98213.64;120041;1150;104377;-72
2021/01/21 10:11:10;;;;;;;16.97;7.55;;;;;;;6.98;71.53;98215.87;120144;1149;104410;-71
2021/01/21 10:13:39;;;;;;;20.82;8.73;;;;;;;6.94;72.20;98210.92;120140;1150;104490;-72
2021/01/21 10:16:07;;;;;;;20.67;8.97;;;;;;;6.94;71.08;98202.98;120152;1149;104375;-73
2021/01/21 10:18:39;;;;;;;20.23;8.63;;;;;;;6.90;71.27;98217.37;120125;1150;104585;-72
2021/01/21 10:21:11;;;;;;;20.30;8.80;;;;;;;6.82;70.53;98196.78;120114;1150;104459;-71
2021/01/21 10:23:39;;;;;;;19.30;8.90;;;;;;;6.74;70.97;98194.66;120194;1149;104432;-71
2021/01/21 10:26:06;;;;;;;20.17;8.50;;;;;;;6.81;70.70;98206.50;120154;1150;104330;-72
2021/01/21 10:28:33;;;;;;;21.33;8.83;;;;;;;6.85;70.89;98209.79;120196;1150;104436;-72
2021/01/21 10:31:01;;;;;;;19.13;8.33;;;;;;;6.87;70.04;98205.23;120073;1150;104355;-71
2021/01/21 10:33:28;;;;;;;21.23;8.23;;;;;;;6.97;71.39;98200.13;120214;1149;104375;-73
2021/01/21 10:35:59;;;;;;;19.20;7.80;;;;;;;7.07;69.76;98203.80;120217;1150;104411;-71
2021/01/21 10:38:26;;;;;;;16.53;7.83;;;;;;;7.04;70.02;98201.38;120156;1150;104601;-69
2021/01/21 10:40:53;;;;;;;19.67;8.28;;;;;;;7.03;70.42;98198.83;120142;1149;104407;-71
2021/01/21 10:43:20;;;;;;;20.23;8.97;;;;;;;7.02;69.94;98189.20;120165;1149;104492;-71
2021/01/21 10:45:47;;;;;;;19.43;8.47;;;;;;;7.05;70.47;98203.07;120140;1150;104342;-71
2021/01/21 10:48:14;;;;;;;19.20;8.17;;;;;;;7.02;69.52;98205.94;120181;1150;104522;-71
2021/01/21 10:50:43;;;;;;;18.83;8.20;;;;;;;6.95;69.60;98196.75;120165;1150;104431;-73
2021/01/21 10:53:12;;;;;;;18.37;8.87;;;;;;;6.93;69.19;98185.44;120129;1149;104512;-72
2021/01/21 10:55:39;;;;;;;20.20;8.95;;;;;;;6.83;69.36;98180.80;120205;1148;104442;-71
2021/01/21 10:58:10;;;;;;;19.97;9.47;;;;;;;6.76;69.37;98186.64;120159;1149;104384;-69
2021/01/21 11:00:37;;;;;;;17.80;8.07;;;;;;;6.65;68.97;98196.17;120173;1150;104414;-71
2021/01/21 11:03:04;;;;;;;19.47;8.53;;;;;;;6.62;69.36;98195.55;120154;1149;104445;-72
2021/01/21 11:05:33;;;;;;;19.97;8.23;;;;;;;6.64;69.23;98186.55;120188;1151;104439;-71
2021/01/21 11:08:03;;;;;;;19.77;8.43;;;;;;;6.66;68.70;98197.86;120156;1150;104437;-71
2021/01/21 11:10:30;;;;;;;21.53;9.80;;;;;;;6.54;69.07;98178.44;120227;1149;105017;-73
2021/01/21 11:12:57;;;;;;;23.10;9.67;;;;;;;6.52;69.38;98172.42;120174;1149;104441;-70
2021/01/21 11:15:25;;;;;;;18.65;8.30;;;;;;;6.53;68.89;98168.82;120119;1150;104608;-71
2021/01/21 11:18:01;;;;;;;21.67;9.53;;;;;;;6.55;69.12;98176.62;120156;1150;104455;-74
2021/01/21 11:20:34;;;;;;;21.63;8.47;;;;;;;6.63;69.51;98178.75;120188;1149;104348;-70
2021/01/21 11:23:10;;;;;;;17.57;8.23;;;;;;;6.53;68.72;98179.39;120130;1150;104341;-70
2021/01/21 11:25:39;;;;;;;19.10;9.13;;;;;;;6.48;68.62;98157.73;120169;1148;104393;-71
2021/01/21 11:28:09;;;;;;;20.47;8.80;;;;;;;6.59;68.37;98158.78;120304;1149;104400;-72